sensor_id;sensor_type;location;lat;lon;timestamp;pressure;altitude;pressure_sealevel;temperature;humidity
21395;BME280;10858;42.714;23.180;2022-12-07T00:01:40;94396.97;;;7.82;80.38
21395;BME280;10858;42.714;23.180;2022-12-07T00:04:09;94403.00;;;7.38;80.75
21395;BME280;10858;42.714;23.180;2022-12-07T00:06:41;94400.97;;;7.42;81.71
21395;BME280;10858;42.714;23.180;2022-12-07T00:09:11;94396.84;;;7.61;80.74
21395;BME280;10858;42.714;23.180;2022-12-07T00:11:38;94395.13;;;7.60;80.31
21395;BME280;10858;42.714;23.180;2022-12-07T00:14:07;94389.00;;;7.49;80.85
21395;BME280;10858;42.714;23.180;2022-12-07T00:16:34;94393.25;;;7.28;81.64
21395;BME280;10858;42.714;23.180;2022-12-07T00:19:01;94383.59;;;7.50;81.28
21395;BME280;10858;42.714;23.180;2022-12-07T00:21:32;94390.72;;;7.94;79.19
21395;BME280;10858;42.714;23.180;2022-12-07T00:23:59;94392.94;;;7.43;80.57
21395;BME280;10858;42.714;23.180;2022-12-07T00:26:39;94406.03;;;7.56;80.56
21395;BME280;10858;42.714;23.180;2022-12-07T00:29:28;94403.78;;;7.17;82.39
21395;BME280;10858;42.714;23.180;2022-12-07T00:31:54;94394.13;;;7.39;81.95
21395;BME280;10858;42.714;23.180;2022-12-07T00:34:21;94393.03;;;7.42;82.17
21395;BME280;10858;42.714;23.180;2022-12-07T00:36:47;94398.28;;;7.77;80.87
21395;BME280;10858;42.714;23.180;2022-12-07T00:39:14;94398.63;;;7.72;80.38
21395;BME280;10858;42.714;23.180;2022-12-07T00:41:40;94401.53;;;7.91;79.64
21395;BME280;10858;42.714;23.180;2022-12-07T00:44:07;94400.75;;;7.56;80.09
21395;BME280;10858;42.714;23.180;2022-12-07T00:46:33;94387.91;;;7.40;81.39
21395;BME280;10858;42.714;23.180;2022-12-07T00:48:59;94391.31;;;7.19;81.96
21395;BME280;10858;42.714;23.180;2022-12-07T00:51:26;94389.13;;;7.13;82.80
21395;BME280;10858;42.714;23.180;2022-12-07T00:53:53;94386.31;;;7.38;81.74
21395;BME280;10858;42.714;23.180;2022-12-07T00:56:21;94389.34;;;7.44;81.35
21395;BME280;10858;42.714;23.180;2022-12-07T00:58:59;94396.72;;;7.17;82.60
21395;BME280;10858;42.714;23.180;2022-12-07T01:01:27;94392.16;;;7.65;81.28
21395;BME280;10858;42.714;23.180;2022-12-07T01:03:54;94394.31;;;7.71;80.74
21395;BME280;10858;42.714;23.180;2022-12-07T01:06:23;94384.47;;;7.73;80.18
21395;BME280;10858;42.714;23.180;2022-12-07T01:08:50;94382.56;;;7.75;80.17
21395;BME280;10858;42.714;23.180;2022-12-07T01:11:19;94389.16;;;7.92;79.37
21395;BME280;10858;42.714;23.180;2022-12-07T01:13:46;94383.03;;;7.69;79.48
21395;BME280;10858;42.714;23.180;2022-12-07T01:16:15;94374.13;;;7.70;80.15
21395;BME280;10858;42.714;23.180;2022-12-07T01:18:43;94377.88;;;7.79;79.02
21395;BME280;10858;42.714;23.180;2022-12-07T01:21:13;94377.84;;;7.56;80.32
21395;BME280;10858;42.714;23.180;2022-12-07T01:23:40;94374.75;;;7.17;81.56
21395;BME280;10858;42.714;23.180;2022-12-07T01:26:12;94372.69;;;7.66;80.48
21395;BME280;10858;42.714;23.180;2022-12-07T01:28:39;94376.81;;;7.81;79.38
21395;BME280;10858;42.714;23.180;2022-12-07T01:31:08;94369.22;;;7.77;79.26
21395;BME280;10858;42.714;23.180;2022-12-07T01:33:38;94366.59;;;7.65;79.48
21395;BME280;10858;42.714;23.180;2022-12-07T01:38:32;94365.59;;;7.10;82.19
21395;BME280;10858;42.714;23.180;2022-12-07T01:41:00;94371.94;;;7.42;81.88
21395;BME280;10858;42.714;23.180;2022-12-07T01:43:28;94364.19;;;7.62;80.49
21395;BME280;10858;42.714;23.180;2022-12-07T01:45:55;94367.41;;;7.66;80.20
21395;BME280;10858;42.714;23.180;2022-12-07T01:48:27;94361.66;;;7.72;79.98
21395;BME280;10858;42.714;23.180;2022-12-07T01:50:56;94361.03;;;7.35;80.64
21395;BME280;10858;42.714;23.180;2022-12-07T01:53:25;94362.69;;;7.25;82.08
21395;BME280;10858;42.714;23.180;2022-12-07T01:55:53;94356.03;;;7.65;80.51
21395;BME280;10858;42.714;23.180;2022-12-07T01:58:20;94357.97;;;7.63;80.20
21395;BME280;10858;42.714;23.180;2022-12-07T02:00:47;94360.59;;;7.74;79.95
21395;BME280;10858;42.714;23.180;2022-12-07T02:03:24;94348.44;;;7.50;80.45
21395;BME280;10858;42.714;23.180;2022-12-07T02:05:54;94358.88;;;7.40;81.02
21395;BME280;10858;42.714;23.180;2022-12-07T02:08:21;94353.31;;;7.32;81.72
21395;BME280;10858;42.714;23.180;2022-12-07T02:10:47;94351.03;;;7.28;81.82
21395;BME280;10858;42.714;23.180;2022-12-07T02:13:16;94350.56;;;7.34;81.76
21395;BME280;10858;42.714;23.180;2022-12-07T02:15:55;94350.78;;;7.20;81.56
21395;BME280;10858;42.714;23.180;2022-12-07T02:30:10;94343.22;;;6.80;80.46
21395;BME280;10858;42.714;23.180;2022-12-07T02:32:51;94329.78;;;6.49;81.84
21395;BME280;10858;42.714;23.180;2022-12-07T02:35:32;94330.34;;;6.65;80.99
21395;BME280;10858;42.714;23.180;2022-12-07T02:40:48;94339.16;;;6.29;80.41
21395;BME280;10858;42.714;23.180;2022-12-07T02:43:27;94339.81;;;6.20;81.28
21395;BME280;10858;42.714;23.180;2022-12-07T02:46:04;94331.59;;;6.12;81.12
21395;BME280;10858;42.714;23.180;2022-12-07T02:48:33;94329.78;;;5.89;81.63
21395;BME280;10858;42.714;23.180;2022-12-07T02:51:00;94329.66;;;6.27;80.29
21395;BME280;10858;42.714;23.180;2022-12-07T02:53:44;94323.56;;;6.26;79.99
21395;BME280;10858;42.714;23.180;2022-12-07T03:10:14;94314.34;;;6.55;78.81
21395;BME280;10858;42.714;23.180;2022-12-07T03:15:20;94329.13;;;5.98;81.91
21395;BME280;10858;42.714;23.180;2022-12-07T03:17:49;94329.78;;;5.64;84.46
21395;BME280;10858;42.714;23.180;2022-12-07T03:20:20;94320.28;;;5.74;85.09
21395;BME280;10858;42.714;23.180;2022-12-07T03:22:47;94321.81;;;6.14;84.24
21395;BME280;10858;42.714;23.180;2022-12-07T03:25:16;94323.50;;;6.15;84.25
21395;BME280;10858;42.714;23.180;2022-12-07T03:27:57;94325.25;;;6.27;83.71
21395;BME280;10858;42.714;23.180;2022-12-07T03:30:37;94324.88;;;6.55;82.35
21395;BME280;10858;42.714;23.180;2022-12-07T03:33:33;94322.09;;;6.22;82.80
21395;BME280;10858;42.714;23.180;2022-12-07T03:36:11;94323.22;;;6.07;84.19
21395;BME280;10858;42.714;23.180;2022-12-07T03:38:45;94319.28;;;6.36;83.91
21395;BME280;10858;42.714;23.180;2022-12-07T03:41:28;94321.53;;;6.53;82.70
21395;BME280;10858;42.714;23.180;2022-12-07T03:43:56;94324.03;;;6.78;82.35
21395;BME280;10858;42.714;23.180;2022-12-07T03:54:28;94309.59;;;6.60;83.53
21395;BME280;10858;42.714;23.180;2022-12-07T03:56:56;94309.69;;;6.94;82.09
21395;BME280;10858;42.714;23.180;2022-12-07T03:59:24;94313.38;;;7.15;81.46
21395;BME280;10858;42.714;23.180;2022-12-07T04:01:56;94307.53;;;6.87;81.85
21395;BME280;10858;42.714;23.180;2022-12-07T04:04:25;94306.19;;;6.82;82.58
21395;BME280;10858;42.714;23.180;2022-12-07T04:06:51;94311.41;;;6.95;82.13
21395;BME280;10858;42.714;23.180;2022-12-07T04:09:18;94310.63;;;6.81;82.03
21395;BME280;10858;42.714;23.180;2022-12-07T04:11:44;94315.22;;;6.91;82.12
21395;BME280;10858;42.714;23.180;2022-12-07T04:14:10;94313.75;;;6.86;81.84
21395;BME280;10858;42.714;23.180;2022-12-07T04:16:50;94314.97;;;6.94;82.15
21395;BME280;10858;42.714;23.180;2022-12-07T04:19:18;94317.88;;;7.02;81.76
21395;BME280;10858;42.714;23.180;2022-12-07T04:21:44;94315.88;;;6.81;81.87
21395;BME280;10858;42.714;23.180;2022-12-07T04:24:13;94324.97;;;6.77;82.50
21395;BME280;10858;42.714;23.180;2022-12-07T04:26:40;94321.63;;;6.75;82.30
21395;BME280;10858;42.714;23.180;2022-12-07T04:29:06;94320.63;;;6.65;82.81
21395;BME280;10858;42.714;23.180;2022-12-07T04:31:32;94313.16;;;6.59;83.07
21395;BME280;10858;42.714;23.180;2022-12-07T04:33:58;94320.16;;;6.71;83.12
21395;BME280;10858;42.714;23.180;2022-12-07T04:36:24;94316.94;;;7.03;82.27
21395;BME280;10858;42.714;23.180;2022-12-07T04:38:53;94307.84;;;7.18;81.20
21395;BME280;10858;42.714;23.180;2022-12-07T04:41:21;94314.28;;;7.03;81.00
21395;BME280;10858;42.714;23.180;2022-12-07T04:44:00;94312.50;;;7.03;81.16
21395;BME280;10858;42.714;23.180;2022-12-07T04:46:28;94309.41;;;6.74;82.25
21395;BME280;10858;42.714;23.180;2022-12-07T04:48:55;94322.53;;;6.63;83.02
21395;BME280;10858;42.714;23.180;2022-12-07T04:51:27;94328.00;;;6.73;83.04
21395;BME280;10858;42.714;23.180;2022-12-07T04:53:54;94330.56;;;6.97;82.10
21395;BME280;10858;42.714;23.180;2022-12-07T04:56:20;94316.00;;;7.26;79.82
21395;BME280;10858;42.714;23.180;2022-12-07T04:58:48;94321.94;;;6.95;79.84
21395;BME280;10858;42.714;23.180;2022-12-07T05:01:15;94313.31;;;6.34;81.99
21395;BME280;10858;42.714;23.180;2022-12-07T05:03:42;94307.03;;;6.82;79.73
21395;BME280;10858;42.714;23.180;2022-12-07T05:06:09;94314.63;;;6.40;80.33
21395;BME280;10858;42.714;23.180;2022-12-07T05:08:36;94313.22;;;5.99;82.11
21395;BME280;10858;42.714;23.180;2022-12-07T05:11:04;94312.09;;;5.91;81.63
21395;BME280;10858;42.714;23.180;2022-12-07T05:13:31;94320.09;;;5.77;82.64
21395;BME280;10858;42.714;23.180;2022-12-07T05:15:57;94317.78;;;5.72;82.13
21395;BME280;10858;42.714;23.180;2022-12-07T05:18:23;94326.41;;;5.62;82.48
21395;BME280;10858;42.714;23.180;2022-12-07T05:20:49;94321.28;;;5.60;83.08
21395;BME280;10858;42.714;23.180;2022-12-07T05:23:17;94314.81;;;5.89;82.52
21395;BME280;10858;42.714;23.180;2022-12-07T05:25:44;94315.88;;;6.23;81.08
21395;BME280;10858;42.714;23.180;2022-12-07T05:28:10;94312.88;;;6.51;79.45
21395;BME280;10858;42.714;23.180;2022-12-07T05:30:36;94310.81;;;6.44;79.73
21395;BME280;10858;42.714;23.180;2022-12-07T05:33:03;94311.63;;;6.33;80.65
21395;BME280;10858;42.714;23.180;2022-12-07T05:35:29;94315.50;;;6.40;81.16
21395;BME280;10858;42.714;23.180;2022-12-07T05:37:56;94317.66;;;6.70;80.00
21395;BME280;10858;42.714;23.180;2022-12-07T05:40:23;94318.72;;;6.44;80.37
21395;BME280;10858;42.714;23.180;2022-12-07T05:42:49;94319.41;;;6.11;81.45
21395;BME280;10858;42.714;23.180;2022-12-07T05:45:15;94314.50;;;6.18;82.65
21395;BME280;10858;42.714;23.180;2022-12-07T05:47:41;94304.22;;;6.15;82.51
21395;BME280;10858;42.714;23.180;2022-12-07T05:50:07;94296.13;;;6.41;82.42
21395;BME280;10858;42.714;23.180;2022-12-07T05:52:34;94306.78;;;6.85;79.70
21395;BME280;10858;42.714;23.180;2022-12-07T05:55:00;94305.53;;;6.67;79.87
21395;BME280;10858;42.714;23.180;2022-12-07T05:57:26;94301.53;;;6.51;80.17
21395;BME280;10858;42.714;23.180;2022-12-07T05:59:53;94294.72;;;6.59;80.38
21395;BME280;10858;42.714;23.180;2022-12-07T06:02:19;94299.00;;;6.26;81.31
21395;BME280;10858;42.714;23.180;2022-12-07T06:04:46;94304.75;;;6.43;81.72
21395;BME280;10858;42.714;23.180;2022-12-07T06:07:15;94309.31;;;6.52;81.21
21395;BME280;10858;42.714;23.180;2022-12-07T06:09:41;94314.88;;;6.60;81.55
21395;BME280;10858;42.714;23.180;2022-12-07T06:12:11;94312.66;;;6.78;81.50
21395;BME280;10858;42.714;23.180;2022-12-07T06:14:56;94316.91;;;6.57;81.82
21395;BME280;10858;42.714;23.180;2022-12-07T06:17:22;94310.25;;;6.75;82.71
21395;BME280;10858;42.714;23.180;2022-12-07T06:19:49;94317.72;;;7.27;81.15
21395;BME280;10858;42.714;23.180;2022-12-07T06:22:15;94315.97;;;7.04;81.24
21395;BME280;10858;42.714;23.180;2022-12-07T06:24:42;94318.06;;;6.87;82.04
21395;BME280;10858;42.714;23.180;2022-12-07T06:27:09;94321.34;;;6.91;82.65
21395;BME280;10858;42.714;23.180;2022-12-07T06:29:35;94325.56;;;7.05;83.07
21395;BME280;10858;42.714;23.180;2022-12-07T06:32:02;94323.91;;;7.15;82.73
21395;BME280;10858;42.714;23.180;2022-12-07T06:34:29;94322.75;;;7.30;82.58
21395;BME280;10858;42.714;23.180;2022-12-07T06:36:55;94332.50;;;7.73;81.20
21395;BME280;10858;42.714;23.180;2022-12-07T06:39:24;94332.88;;;7.91;79.62
21395;BME280;10858;42.714;23.180;2022-12-07T06:41:50;94336.44;;;7.46;80.95
21395;BME280;10858;42.714;23.180;2022-12-07T06:44:20;94340.94;;;7.22;82.08
21395;BME280;10858;42.714;23.180;2022-12-07T06:46:48;94339.63;;;7.16;82.58
21395;BME280;10858;42.714;23.180;2022-12-07T06:49:15;94335.56;;;7.23;82.24
21395;BME280;10858;42.714;23.180;2022-12-07T06:51:41;94338.00;;;7.37;82.29
21395;BME280;10858;42.714;23.180;2022-12-07T06:54:11;94339.81;;;7.70;81.93
21395;BME280;10858;42.714;23.180;2022-12-07T06:56:38;94335.03;;;7.75;80.68
21395;BME280;10858;42.714;23.180;2022-12-07T06:59:07;94339.09;;;7.68;81.36
21395;BME280;10858;42.714;23.180;2022-12-07T07:01:34;94340.69;;;7.59;81.59
21395;BME280;10858;42.714;23.180;2022-12-07T07:04:01;94341.75;;;7.57;81.79
21395;BME280;10858;42.714;23.180;2022-12-07T07:06:27;94342.34;;;7.60;81.27
21395;BME280;10858;42.714;23.180;2022-12-07T07:08:53;94344.84;;;7.62;81.57
21395;BME280;10858;42.714;23.180;2022-12-07T07:11:20;94334.81;;;7.89;81.03
21395;BME280;10858;42.714;23.180;2022-12-07T07:13:46;94344.16;;;7.71;81.53
21395;BME280;10858;42.714;23.180;2022-12-07T07:16:12;94337.66;;;7.86;80.35
21395;BME280;10858;42.714;23.180;2022-12-07T07:18:43;94335.28;;;8.05;80.75
21395;BME280;10858;42.714;23.180;2022-12-07T07:21:09;94338.41;;;7.99;79.55
21395;BME280;10858;42.714;23.180;2022-12-07T07:23:36;94337.91;;;8.27;80.13
21395;BME280;10858;42.714;23.180;2022-12-07T07:26:03;94334.44;;;8.27;79.54
21395;BME280;10858;42.714;23.180;2022-12-07T07:28:29;94340.31;;;8.19;79.68
21395;BME280;10858;42.714;23.180;2022-12-07T07:30:56;94337.66;;;8.08;79.41
21395;BME280;10858;42.714;23.180;2022-12-07T07:33:22;94342.09;;;8.08;79.69
21395;BME280;10858;42.714;23.180;2022-12-07T07:35:48;94334.53;;;8.79;78.99
21395;BME280;10858;42.714;23.180;2022-12-07T07:38:15;94338.88;;;9.01;76.78
21395;BME280;10858;42.714;23.180;2022-12-07T07:40:41;94336.13;;;9.23;75.69
21395;BME280;10858;42.714;23.180;2022-12-07T07:43:08;94341.66;;;9.20;74.94
21395;BME280;10858;42.714;23.180;2022-12-07T07:45:34;94339.53;;;9.14;74.70
21395;BME280;10858;42.714;23.180;2022-12-07T07:48:01;94334.94;;;9.16;75.57
21395;BME280;10858;42.714;23.180;2022-12-07T07:50:27;94333.09;;;9.07;74.90
21395;BME280;10858;42.714;23.180;2022-12-07T07:52:53;94325.09;;;9.18;74.50
21395;BME280;10858;42.714;23.180;2022-12-07T07:55:20;94324.81;;;8.80;75.76
21395;BME280;10858;42.714;23.180;2022-12-07T07:57:46;94335.25;;;9.02;75.47
21395;BME280;10858;42.714;23.180;2022-12-07T08:00:14;94331.03;;;8.90;75.74
21395;BME280;10858;42.714;23.180;2022-12-07T08:02:42;94332.59;;;8.81;76.50
21395;BME280;10858;42.714;23.180;2022-12-07T08:05:10;94329.66;;;8.64;76.46
21395;BME280;10858;42.714;23.180;2022-12-07T08:07:37;94331.16;;;8.34;76.78
21395;BME280;10858;42.714;23.180;2022-12-07T08:10:03;94331.19;;;8.77;75.71
21395;BME280;10858;42.714;23.180;2022-12-07T08:12:30;94328.94;;;8.93;75.84
21395;BME280;10858;42.714;23.180;2022-12-07T08:14:56;94335.50;;;9.51;74.61
21395;BME280;10858;42.714;23.180;2022-12-07T08:17:23;94331.28;;;9.69;73.22
21395;BME280;10858;42.714;23.180;2022-12-07T08:19:49;94329.16;;;9.93;72.17
21395;BME280;10858;42.714;23.180;2022-12-07T08:22:16;94325.09;;;10.10;71.48
21395;BME280;10858;42.714;23.180;2022-12-07T08:24:42;94326.50;;;10.14;72.27
21395;BME280;10858;42.714;23.180;2022-12-07T08:27:08;94325.25;;;10.67;69.00
21395;BME280;10858;42.714;23.180;2022-12-07T08:29:35;94325.03;;;10.40;70.10
21395;BME280;10858;42.714;23.180;2022-12-07T08:32:02;94321.88;;;10.56;69.85
21395;BME280;10858;42.714;23.180;2022-12-07T08:34:28;94327.25;;;10.94;67.67
21395;BME280;10858;42.714;23.180;2022-12-07T08:36:54;94326.00;;;10.98;67.55
21395;BME280;10858;42.714;23.180;2022-12-07T08:39:21;94326.88;;;10.40;69.48
21395;BME280;10858;42.714;23.180;2022-12-07T08:41:47;94313.97;;;10.25;70.19
21395;BME280;10858;42.714;23.180;2022-12-07T08:44:13;94318.22;;;10.47;68.61
21395;BME280;10858;42.714;23.180;2022-12-07T08:46:45;94324.28;;;10.19;69.81
21395;BME280;10858;42.714;23.180;2022-12-07T08:49:33;94321.91;;;11.13;67.59
21395;BME280;10858;42.714;23.180;2022-12-07T08:52:04;94313.25;;;11.11;66.70
21395;BME280;10858;42.714;23.180;2022-12-07T08:54:30;94306.50;;;11.55;66.63
21395;BME280;10858;42.714;23.180;2022-12-07T08:56:59;94302.44;;;12.16;64.35
21395;BME280;10858;42.714;23.180;2022-12-07T08:59:26;94300.47;;;12.45;63.26
21395;BME280;10858;42.714;23.180;2022-12-07T09:01:56;94313.31;;;12.23;62.38
21395;BME280;10858;42.714;23.180;2022-12-07T09:04:23;94302.81;;;12.21;63.02
21395;BME280;10858;42.714;23.180;2022-12-07T09:06:51;94305.66;;;11.64;64.54
21395;BME280;10858;42.714;23.180;2022-12-07T09:09:17;94302.31;;;11.43;67.57
21395;BME280;10858;42.714;23.180;2022-12-07T09:11:44;94298.66;;;11.63;66.17
21395;BME280;10858;42.714;23.180;2022-12-07T09:14:12;94289.13;;;11.60;66.52
21395;BME280;10858;42.714;23.180;2022-12-07T09:16:38;94293.56;;;11.98;65.76
21395;BME280;10858;42.714;23.180;2022-12-07T09:19:05;94285.91;;;12.13;64.90
21395;BME280;10858;42.714;23.180;2022-12-07T09:21:31;94279.63;;;12.86;62.80
21395;BME280;10858;42.714;23.180;2022-12-07T09:23:58;94278.06;;;13.10;61.42
21395;BME280;10858;42.714;23.180;2022-12-07T09:26:24;94271.03;;;12.74;61.25
21395;BME280;10858;42.714;23.180;2022-12-07T09:28:51;94273.78;;;11.64;64.38
21395;BME280;10858;42.714;23.180;2022-12-07T09:31:17;94275.81;;;11.24;65.78
21395;BME280;10858;42.714;23.180;2022-12-07T09:33:43;94279.75;;;11.10;65.82
21395;BME280;10858;42.714;23.180;2022-12-07T09:36:10;94277.78;;;11.12;67.43
21395;BME280;10858;42.714;23.180;2022-12-07T09:38:36;94270.66;;;11.22;66.56
21395;BME280;10858;42.714;23.180;2022-12-07T09:41:06;94276.47;;;11.54;65.37
21395;BME280;10858;42.714;23.180;2022-12-07T09:43:34;94270.22;;;11.82;65.11
21395;BME280;10858;42.714;23.180;2022-12-07T09:46:01;94260.91;;;11.59;65.56
21395;BME280;10858;42.714;23.180;2022-12-07T09:48:34;94259.47;;;11.74;65.87
21395;BME280;10858;42.714;23.180;2022-12-07T09:51:03;94259.78;;;11.71;65.53
21395;BME280;10858;42.714;23.180;2022-12-07T09:53:37;94258.16;;;11.98;65.50
21395;BME280;10858;42.714;23.180;2022-12-07T09:56:05;94251.91;;;12.16;65.71
21395;BME280;10858;42.714;23.180;2022-12-07T09:58:33;94249.56;;;12.58;64.38
21395;BME280;10858;42.714;23.180;2022-12-07T10:03:39;94247.22;;;12.72;62.99
21395;BME280;10858;42.714;23.180;2022-12-07T10:06:07;94244.69;;;12.53;63.73
21395;BME280;10858;42.714;23.180;2022-12-07T10:08:33;94233.59;;;12.40;63.60
21395;BME280;10858;42.714;23.180;2022-12-07T10:11:02;94234.88;;;12.89;63.47
21395;BME280;10858;42.714;23.180;2022-12-07T10:13:41;94229.34;;;13.18;65.48
21395;BME280;10858;42.714;23.180;2022-12-07T10:16:32;94219.75;;;12.90;64.17
21395;BME280;10858;42.714;23.180;2022-12-07T10:19:25;94221.91;;;11.96;63.97
21395;BME280;10858;42.714;23.180;2022-12-07T10:24:36;94217.81;;;11.19;67.11
21395;BME280;10858;42.714;23.180;2022-12-07T10:27:05;94211.31;;;11.50;66.35
21395;BME280;10858;42.714;23.180;2022-12-07T10:29:33;94204.56;;;11.92;65.15
21395;BME280;10858;42.714;23.180;2022-12-07T10:34:35;94203.97;;;12.70;62.03
21395;BME280;10858;42.714;23.180;2022-12-07T10:37:16;94199.38;;;12.45;62.71
21395;BME280;10858;42.714;23.180;2022-12-07T10:39:54;94206.06;;;12.67;61.72
21395;BME280;10858;42.714;23.180;2022-12-07T10:42:26;94196.84;;;12.97;61.75
21395;BME280;10858;42.714;23.180;2022-12-07T11:01:50;94169.00;;;13.09;60.09
21395;BME280;10858;42.714;23.180;2022-12-07T11:07:52;94160.38;;;13.32;60.74
21395;BME280;10858;42.714;23.180;2022-12-07T11:22:09;94141.03;;;13.30;58.78
21395;BME280;10858;42.714;23.180;2022-12-07T11:25:15;94146.78;;;13.18;59.40
21395;BME280;10858;42.714;23.180;2022-12-07T11:31:07;94137.25;;;13.67;57.66
21395;BME280;10858;42.714;23.180;2022-12-07T11:33:44;94145.41;;;14.23;55.17
21395;BME280;10858;42.714;23.180;2022-12-07T11:38:56;94131.69;;;14.02;55.89
21395;BME280;10858;42.714;23.180;2022-12-07T11:41:46;94124.56;;;13.60;57.86
21395;BME280;10858;42.714;23.180;2022-12-07T11:47:08;94125.59;;;13.08;59.44
21395;BME280;10858;42.714;23.180;2022-12-07T11:52:47;94113.78;;;13.78;57.32
21395;BME280;10858;42.714;23.180;2022-12-07T12:00:45;94105.91;;;13.60;57.00
21395;BME280;10858;42.714;23.180;2022-12-07T12:03:15;94105.44;;;13.39;57.33
21395;BME280;10858;42.714;23.180;2022-12-07T12:05:46;94110.06;;;13.29;57.51
21395;BME280;10858;42.714;23.180;2022-12-07T12:08:21;94099.41;;;13.29;58.23
21395;BME280;10858;42.714;23.180;2022-12-07T12:13:57;94093.00;;;13.48;57.64
21395;BME280;10858;42.714;23.180;2022-12-07T12:16:50;94090.50;;;13.46;57.94
21395;BME280;10858;42.714;23.180;2022-12-07T12:24:37;94080.06;;;14.11;55.47
21395;BME280;10858;42.714;23.180;2022-12-07T12:27:08;94076.41;;;13.62;57.24
21395;BME280;10858;42.714;23.180;2022-12-07T12:29:37;94076.31;;;13.88;57.42
21395;BME280;10858;42.714;23.180;2022-12-07T12:32:17;94066.09;;;14.81;54.59
21395;BME280;10858;42.714;23.180;2022-12-07T12:37:41;94057.22;;;15.68;51.64
21395;BME280;10858;42.714;23.180;2022-12-07T12:42:54;94058.06;;;16.07;50.19
21395;BME280;10858;42.714;23.180;2022-12-07T12:48:00;94057.97;;;16.68;48.17
21395;BME280;10858;42.714;23.180;2022-12-07T12:50:37;94057.44;;;16.50;49.15
21395;BME280;10858;42.714;23.180;2022-12-07T12:53:23;94051.03;;;16.96;47.77
21395;BME280;10858;42.714;23.180;2022-12-07T13:00:47;94066.31;;;15.59;50.54
21395;BME280;10858;42.714;23.180;2022-12-07T13:03:51;94062.94;;;14.54;53.09
21395;BME280;10858;42.714;23.180;2022-12-07T13:08:51;94053.63;;;13.34;57.42
21395;BME280;10858;42.714;23.180;2022-12-07T13:11:29;94069.63;;;13.34;57.28
21395;BME280;10858;42.714;23.180;2022-12-07T13:20:01;94050.19;;;13.08;59.17
21395;BME280;10858;42.714;23.180;2022-12-07T13:29:36;94050.50;;;13.88;56.89
21395;BME280;10858;42.714;23.180;2022-12-07T13:32:03;94045.81;;;13.82;56.84
21395;BME280;10858;42.714;23.180;2022-12-07T13:34:35;94045.34;;;13.95;56.98
21395;BME280;10858;42.714;23.180;2022-12-07T13:39:44;94041.94;;;13.60;57.53
21395;BME280;10858;42.714;23.180;2022-12-07T13:44:56;94053.66;;;13.42;58.60
21395;BME280;10858;42.714;23.180;2022-12-07T13:47:46;94049.25;;;13.58;57.90
21395;BME280;10858;42.714;23.180;2022-12-07T13:50:27;94053.53;;;13.51;58.53
21395;BME280;10858;42.714;23.180;2022-12-07T13:52:59;94062.84;;;13.47;58.76
21395;BME280;10858;42.714;23.180;2022-12-07T13:55:27;94051.72;;;13.52;58.50
21395;BME280;10858;42.714;23.180;2022-12-07T13:57:55;94043.84;;;13.42;59.17
21395;BME280;10858;42.714;23.180;2022-12-07T14:00:24;94044.50;;;13.36;59.43
21395;BME280;10858;42.714;23.180;2022-12-07T14:03:25;94041.09;;;13.18;59.70
21395;BME280;10858;42.714;23.180;2022-12-07T14:06:18;94040.75;;;12.96;60.23
21395;BME280;10858;42.714;23.180;2022-12-07T14:08:45;94051.31;;;12.79;61.15
21395;BME280;10858;42.714;23.180;2022-12-07T14:11:19;94048.47;;;12.81;60.57
21395;BME280;10858;42.714;23.180;2022-12-07T14:18:56;94053.81;;;12.38;62.21
21395;BME280;10858;42.714;23.180;2022-12-07T14:21:25;94053.91;;;12.11;62.82
21395;BME280;10858;42.714;23.180;2022-12-07T14:24:18;94047.06;;;11.46;65.40
21395;BME280;10858;42.714;23.180;2022-12-07T14:26:47;94060.50;;;11.44;66.26
21395;BME280;10858;42.714;23.180;2022-12-07T14:31:54;94055.91;;;11.09;67.22
21395;BME280;10858;42.714;23.180;2022-12-07T14:34:21;94052.72;;;10.69;68.66
21395;BME280;10858;42.714;23.180;2022-12-07T14:36:48;94053.44;;;10.62;67.44
21395;BME280;10858;42.714;23.180;2022-12-07T14:39:14;94055.16;;;10.05;69.84
21395;BME280;10858;42.714;23.180;2022-12-07T14:41:40;94055.00;;;9.69;71.75
21395;BME280;10858;42.714;23.180;2022-12-07T14:44:21;94053.19;;;9.69;71.61
21395;BME280;10858;42.714;23.180;2022-12-07T14:46:51;94056.09;;;9.57;71.82
21395;BME280;10858;42.714;23.180;2022-12-07T14:49:18;94057.72;;;9.29;72.61
21395;BME280;10858;42.714;23.180;2022-12-07T14:51:46;94055.97;;;8.99;73.57
21395;BME280;10858;42.714;23.180;2022-12-07T14:54:18;94059.44;;;8.39;77.07
21395;BME280;10858;42.714;23.180;2022-12-07T14:56:45;94051.75;;;8.97;73.57
21395;BME280;10858;42.714;23.180;2022-12-07T14:59:16;94059.47;;;8.70;73.57
21395;BME280;10858;42.714;23.180;2022-12-07T15:01:43;94066.69;;;8.26;75.92
21395;BME280;10858;42.714;23.180;2022-12-07T15:04:09;94069.66;;;8.53;74.98
21395;BME280;10858;42.714;23.180;2022-12-07T15:06:35;94065.84;;;8.05;76.60
21395;BME280;10858;42.714;23.180;2022-12-07T15:09:02;94075.59;;;7.94;77.74
21395;BME280;10858;42.714;23.180;2022-12-07T15:11:29;94073.69;;;8.27;75.68
21395;BME280;10858;42.714;23.180;2022-12-07T15:13:55;94078.97;;;8.27;75.44
21395;BME280;10858;42.714;23.180;2022-12-07T15:16:34;94074.53;;;8.17;75.58
21395;BME280;10858;42.714;23.180;2022-12-07T15:19:01;94070.34;;;8.25;74.23
21395;BME280;10858;42.714;23.180;2022-12-07T15:21:27;94073.09;;;7.92;76.04
21395;BME280;10858;42.714;23.180;2022-12-07T15:23:54;94071.59;;;7.47;77.95
21395;BME280;10858;42.714;23.180;2022-12-07T15:26:20;94070.09;;;7.22;80.02
21395;BME280;10858;42.714;23.180;2022-12-07T15:28:46;94072.03;;;7.52;79.20
21395;BME280;10858;42.714;23.180;2022-12-07T15:31:14;94083.88;;;7.26;80.62
21395;BME280;10858;42.714;23.180;2022-12-07T15:33:42;94081.50;;;7.65;78.98
21395;BME280;10858;42.714;23.180;2022-12-07T15:36:08;94086.94;;;7.53;79.12
21395;BME280;10858;42.714;23.180;2022-12-07T15:38:41;94089.75;;;7.29;79.34
21395;BME280;10858;42.714;23.180;2022-12-07T15:41:07;94090.75;;;6.95;82.27